Covington, Oklahoma
Current Conditions -  °F | °C
As of 8:50 AM on Sunday 21 Dec 2014 (Local Time) from KWDG Reporting Station
Overcast Overcast  
Wind Chill:   Ceiling: 6000
Heat Index:   Visibility: 7mi
Dew Point:   Wind: 20mph
Humidity: 87%   Direction: 160°SSE
Pressure: 29.96"   Gusts: NA
Location:  36.31°N, 97.59°W
Report Text: KWDG 211450Z 16017KT 7SM OVC060 07/05 A2996
Loading
Personal Weather Stations






























Interactive Weather Map New forecast layout! Learn more

10-Day Weather Forecast

Advertisements
Track Severe Weather on mobile